Archival Weather

Annapolis United States Naval

Annapolis United States Naval, Maryland (KNAK)

Report from: Tuesday, June 6, 2023 12:54 AM UTC
Current time: Monday, June 17, 2024 11:09 AM UTC

Current weather – Weather history – Daily summaries
Weather forecast

Temperature21.1°C (70.0°F)
Dew point12.2°C (54.0°F)
Winds Calm
Visibility10 mi. (16.1 km)
Clouds Sky clear
Altimeter29.86 in.Hg (1011 mB)
Relative humidity57 %
Density altitude977 ft. (298 m)
Sea-level pressure101.1 kPa (1011 mB, 29.86 in.Hg)
Remarks Fully automated report
Automated weather observing station with precipitation discriminator
Flight conditions Visual Meteorological Conditions
Raw dataKNAK 060054Z AUTO 00000KT 10SM CLR 21/12 A2986 RMK AO2 SLP113 T02110122
An error has occurred. This application may no longer respond until reloaded. Reload 🗙